Time;durP1;ratioP1;P1;durP2;ratioP2;P2;SDS_P1;SDS_P2;PMS_P1;PMS_P2;Temp;Humidity;BMP_temperature;BMP_pressure;BME280_temperature;BME280_humidity;BME280_pressure;Samples;Min_cycle;Max_cycle;Signal;HPM_P1;HPM_P2
2021/08/09 00:02:20;;;;;;;3.53;1.92;;;22.10;70.60;;;;;;4207252;28;20056;-64
2021/08/09 00:04:43;;;;;;;5.93;2.15;;;22.10;70.70;;;;;;4207264;28;20078;-64
2021/08/09 00:07:04;;;;;;;6.72;1.95;;;22.10;70.80;;;;;;4207078;28;20070;-64
2021/08/09 00:09:27;;;;;;;4.50;2.00;;;22.10;70.70;;;;;;4190424;28;20060;-62
2021/08/09 00:11:49;;;;;;;2.70;1.70;;;22.10;70.80;;;;;;4190705;28;20053;-64
2021/08/09 00:14:11;;;;;;;3.35;1.45;;;22.10;70.80;;;;;;4206851;28;20516;-64
2021/08/09 00:16:35;;;;;;;3.88;1.50;;;22.10;70.80;;;;;;4206122;28;20127;-64
2021/08/09 00:18:58;;;;;;;2.75;1.95;;;22.10;70.70;;;;;;4207391;28;20751;-64
2021/08/09 00:21:21;;;;;;;3.85;1.95;;;22.10;70.80;;;;;;4209770;28;20558;-64
2021/08/09 00:23:44;;;;;;;2.78;1.70;;;22.00;70.70;;;;;;4209660;28;20058;-63
2021/08/09 00:26:06;;;;;;;2.55;1.70;;;22.10;70.90;;;;;;4210362;28;20052;-63
2021/08/09 00:28:27;;;;;;;5.57;2.05;;;22.10;70.80;;;;;;4206856;28;20051;-63
2021/08/09 00:30:49;;;;;;;2.63;1.80;;;22.00;70.80;;;;;;4209612;28;20044;-64
2021/08/09 00:33:13;;;;;;;3.58;1.48;;;22.00;70.80;;;;;;4210096;28;20128;-64
2021/08/09 00:35:35;;;;;;;3.58;1.48;;;22.00;70.60;;;;;;4208048;28;20051;-64
2021/08/09 00:37:57;;;;;;;3.85;1.70;;;22.00;70.80;;;;;;4208183;28;20054;-63
2021/08/09 00:40:19;;;;;;;2.85;1.60;;;22.00;70.90;;;;;;4187570;28;20049;-63
2021/08/09 00:42:42;;;;;;;5.78;1.90;;;22.00;70.90;;;;;;4208681;28;20517;-64
2021/08/09 00:45:05;;;;;;;4.43;2.05;;;22.00;70.80;;;;;;4191141;28;20438;-64
2021/08/09 00:47:27;;;;;;;3.97;1.80;;;22.00;70.80;;;;;;4206894;28;20103;-64
2021/08/09 00:49:51;;;;;;;5.90;2.15;;;22.00;70.90;;;;;;4193047;28;20048;-65
2021/08/09 00:52:14;;;;;;;4.13;2.05;;;22.00;70.90;;;;;;4191391;28;20091;-63
2021/08/09 00:54:38;;;;;;;5.38;1.85;;;22.00;70.80;;;;;;4197079;28;20047;-64
2021/08/09 00:57:03;;;;;;;2.80;1.40;;;22.00;70.80;;;;;;4193201;28;20095;-64
2021/08/09 00:59:27;;;;;;;3.92;1.70;;;22.00;71.00;;;;;;4194001;28;20056;-65
2021/08/09 01:01:50;;;;;;;5.03;1.60;;;22.00;71.00;;;;;;4209516;28;20059;-65
2021/08/09 01:04:12;;;;;;;4.05;1.85;;;22.00;71.10;;;;;;4188961;28;20136;-65
2021/08/09 01:06:38;;;;;;;3.95;1.50;;;22.00;71.10;;;;;;4193897;28;20044;-64
2021/08/09 01:09:12;;;;;;;3.20;1.80;;;21.90;71.10;;;;;;4193466;28;20052;-65
2021/08/09 01:11:43;;;;;;;6.72;1.98;;;21.90;71.10;;;;;;4193556;28;20079;-65
2021/08/09 01:14:14;;;;;;;;;;;21.90;71.10;;;;;;4193857;28;20126;-65
2021/08/09 01:16:38;;;;;;;4.65;1.60;;;21.90;71.40;;;;;;4188613;28;19920;-65
2021/08/09 01:19:06;;;;;;;4.85;1.80;;;21.90;72.30;;;;;;4193693;28;20530;-65
2021/08/09 01:21:33;;;;;;;3.83;1.60;;;21.90;71.40;;;;;;4193247;28;20056;-64
2021/08/09 01:24:07;;;;;;;4.25;1.60;;;21.90;71.40;;;;;;4193283;28;20049;-65
2021/08/09 01:26:37;;;;;;;4.05;2.08;;;21.90;71.40;;;;;;4193481;28;20432;-65
2021/08/09 01:29:03;;;;;;;3.75;1.85;;;21.90;71.40;;;;;;4192752;28;20083;-63
2021/08/09 01:31:28;;;;;;;3.75;1.75;;;21.90;71.30;;;;;;4193300;28;20576;-65
2021/08/09 01:33:51;;;;;;;4.50;1.95;;;21.90;71.30;;;;;;4193170;28;20120;-65
2021/08/09 01:36:15;;;;;;;4.80;2.55;;;21.90;71.40;;;;;;4193364;28;20045;-64
2021/08/09 01:38:43;;;;;;;5.15;2.10;;;21.90;71.40;;;;;;4193381;28;20218;-65
2021/08/09 01:41:06;;;;;;;4.45;2.35;;;21.80;71.30;;;;;;4193269;28;20082;-64
2021/08/09 01:43:30;;;;;;;5.57;2.67;;;21.80;71.50;;;;;;4193233;28;20048;-63
2021/08/09 01:45:57;;;;;;;4.82;1.92;;;21.80;71.50;;;;;;4207953;28;20064;-64
2021/08/09 01:48:19;;;;;;;6.65;2.30;;;21.80;71.30;;;;;;4192148;28;20094;-64
2021/08/09 01:50:43;;;;;;;5.43;2.53;;;21.80;71.60;;;;;;4190770;28;20127;-64
2021/08/09 01:53:06;;;;;;;3.00;2.22;;;21.80;71.40;;;;;;4190621;28;20082;-64
2021/08/09 01:55:30;;;;;;;5.47;2.47;;;21.80;71.40;;;;;;4190637;28;20045;-64
2021/08/09 01:57:53;;;;;;;8.30;3.17;;;21.80;71.40;;;;;;4205107;28;20545;-63
2021/08/09 02:00:18;;;;;;;4.60;2.65;;;21.80;71.50;;;;;;4190586;28;20056;-63
2021/08/09 02:02:46;;;;;;;5.25;2.28;;;21.80;71.50;;;;;;4191782;28;20045;-62
2021/08/09 02:05:11;;;;;;;3.58;2.33;;;21.80;71.60;;;;;;4206103;28;20089;-62
2021/08/09 02:07:35;;;;;;;5.78;2.17;;;21.80;71.70;;;;;;4190402;28;20044;-62
2021/08/09 02:09:58;;;;;;;3.33;2.25;;;21.80;71.60;;;;;;4190381;28;20526;-63
2021/08/09 02:12:20;;;;;;;3.28;1.90;;;21.80;71.60;;;;;;4192789;28;20052;-62
2021/08/09 02:14:47;;;;;;;7.07;1.85;;;21.80;71.60;;;;;;4192371;28;20886;-63
2021/08/09 02:17:14;;;;;;;5.40;2.45;;;21.80;71.50;;;;;;4192594;28;20068;-62
2021/08/09 02:19:41;;;;;;;3.47;1.98;;;21.80;71.60;;;;;;4192400;28;20076;-62
2021/08/09 02:22:09;;;;;;;2.50;1.85;;;21.80;71.80;;;;;;4192656;28;20048;-63
2021/08/09 02:24:35;;;;;;;3.45;2.28;;;21.80;71.60;;;;;;4206229;28;20044;-63
2021/08/09 02:27:03;;;;;;;5.70;2.00;;;21.70;71.60;;;;;;4190426;28;20052;-63
2021/08/09 02:29:30;;;;;;;4.05;2.13;;;21.70;71.70;;;;;;4189820;28;20056;-63
2021/08/09 02:31:52;;;;;;;4.85;2.03;;;21.70;71.80;;;;;;4190262;28;20127;-63
2021/08/09 02:34:17;;;;;;;4.47;1.83;;;21.70;71.90;;;;;;4190744;28;20131;-63
2021/08/09 02:36:42;;;;;;;4.07;1.92;;;21.70;71.70;;;;;;4191203;28;20056;-63
2021/08/09 02:39:05;;;;;;;5.72;2.22;;;21.70;71.70;;;;;;4192383;28;20102;-64
2021/08/09 02:41:29;;;;;;;3.55;1.90;;;21.70;71.70;;;;;;4192427;28;20052;-63
2021/08/09 02:43:51;;;;;;;4.93;2.10;;;21.70;71.80;;;;;;4192333;28;20049;-63
2021/08/09 02:46:14;;;;;;;5.43;1.75;;;21.70;71.80;;;;;;4191950;28;20055;-62
2021/08/09 02:48:40;;;;;;;2.50;1.77;;;21.70;72.60;;;;;;4192356;28;20497;-61
2021/08/09 02:51:03;;;;;;;6.50;2.38;;;21.70;71.70;;;;;;4192182;28;20092;-63
2021/08/09 02:53:28;;;;;;;4.03;1.75;;;21.70;71.80;;;;;;4192075;28;20105;-63
2021/08/09 02:55:52;;;;;;;5.22;2.40;;;21.70;71.70;;;;;;4207363;28;20044;-63
2021/08/09 02:58:16;;;;;;;5.25;2.03;;;21.70;71.70;;;;;;4192287;28;20060;-63
2021/08/09 03:00:38;;;;;;;3.83;1.88;;;21.70;71.60;;;;;;4192378;28;20552;-64
2021/08/09 03:03:00;;;;;;;8.65;2.50;;;21.70;71.60;;;;;;4207207;28;20414;-64
2021/08/09 03:05:24;;;;;;;2.80;1.60;;;21.60;71.60;;;;;;4190011;28;20450;-63
2021/08/09 03:07:46;;;;;;;6.78;2.03;;;21.60;71.80;;;;;;4198188;28;20071;-65
2021/08/09 03:10:11;;;;;;;6.35;2.00;;;21.60;71.80;;;;;;4195369;28;20402;-64
2021/08/09 03:12:35;;;;;;;5.85;1.88;;;21.60;71.70;;;;;;4192274;28;20585;-65
2021/08/09 03:14:57;;;;;;;3.70;1.80;;;21.60;71.70;;;;;;4192186;28;20052;-64
2021/08/09 03:17:19;;;;;;;4.47;1.90;;;21.60;71.90;;;;;;4204745;28;20501;-64
2021/08/09 03:19:42;;;;;;;5.57;2.25;;;21.60;71.70;;;;;;4206222;28;20047;-65
2021/08/09 03:22:04;;;;;;;4.05;1.67;;;21.60;71.60;;;;;;4189771;28;20506;-65
2021/08/09 03:24:30;;;;;;;4.55;2.33;;;21.60;71.70;;;;;;4189437;28;20057;-65
2021/08/09 03:26:53;;;;;;;6.68;2.15;;;21.60;71.90;;;;;;4191399;28;20040;-63
2021/08/09 03:29:16;;;;;;;3.15;1.70;;;21.60;71.90;;;;;;4189771;28;20052;-64
2021/08/09 03:31:38;;;;;;;4.85;2.30;;;21.60;71.90;;;;;;4189591;28;20127;-63
2021/08/09 03:34:00;;;;;;;5.53;2.40;;;21.60;71.80;;;;;;4191647;28;20596;-63
2021/08/09 03:36:23;;;;;;;4.05;2.13;;;21.60;71.60;;;;;;4204939;28;20048;-63
2021/08/09 03:38:45;;;;;;;8.07;2.30;;;21.60;71.60;;;;;;4200194;28;20135;-63
2021/08/09 03:41:07;;;;;;;6.82;2.58;;;21.60;71.80;;;;;;4189292;28;20052;-63
2021/08/09 03:43:30;;;;;;;4.50;2.30;;;21.60;71.70;;;;;;4204829;28;20489;-62
2021/08/09 03:45:53;;;;;;;6.78;2.70;;;21.60;71.80;;;;;;4189539;28;20517;-62
2021/08/09 03:48:15;;;;;;;9.07;2.00;;;21.60;71.80;;;;;;4204597;28;20052;-63
2021/08/09 03:50:37;;;;;;;7.07;3.20;;;21.50;71.90;;;;;;4206247;28;20512;-63
2021/08/09 03:52:59;;;;;;;6.65;2.92;;;21.50;71.90;;;;;;4205810;28;20056;-62
2021/08/09 03:55:22;;;;;;;3.55;1.90;;;21.50;71.80;;;;;;4209947;28;20044;-63
2021/08/09 03:57:45;;;;;;;6.93;2.10;;;21.50;71.90;;;;;;4209561;28;20052;-62
2021/08/09 04:00:10;;;;;;;8.48;2.35;;;21.50;72.00;;;;;;4208888;28;20481;-63
2021/08/09 04:02:37;;;;;;;5.22;2.13;;;21.50;71.90;;;;;;4210646;28;20051;-63
2021/08/09 04:05:09;;;;;;;5.88;2.80;;;21.50;71.80;;;;;;4209000;28;20047;-63
2021/08/09 04:07:31;;;;;;;6.55;2.75;;;21.50;71.90;;;;;;4192384;28;20099;-63
2021/08/09 04:09:53;;;;;;;7.32;2.10;;;21.50;71.90;;;;;;4210030;28;20051;-64
2021/08/09 04:12:16;;;;;;;4.68;2.00;;;21.50;71.90;;;;;;4207276;28;20055;-64
2021/08/09 04:14:38;;;;;;;4.57;1.80;;;21.50;72.00;;;;;;4192260;28;20072;-64
2021/08/09 04:17:01;;;;;;;4.22;2.30;;;21.50;73.00;;;;;;4194694;28;20056;-63
2021/08/09 04:19:23;;;;;;;6.95;2.42;;;21.50;72.10;;;;;;4189037;28;20049;-63
2021/08/09 04:21:45;;;;;;;4.53;1.88;;;21.50;72.10;;;;;;4178534;28;20057;-64
2021/08/09 04:24:08;;;;;;;4.63;2.20;;;21.50;73.30;;;;;;4193179;28;20052;-64
2021/08/09 04:26:30;;;;;;;5.65;2.40;;;21.40;72.30;;;;;;4201968;28;20056;-64
2021/08/09 04:28:52;;;;;;;8.63;2.63;;;21.40;72.10;;;;;;4191994;28;20071;-64
2021/08/09 04:31:15;;;;;;;4.85;2.05;;;21.40;72.10;;;;;;4207337;28;20091;-64
2021/08/09 04:33:43;;;;;;;7.78;2.67;;;21.40;72.20;;;;;;4191836;28;20082;-65
2021/08/09 04:36:05;;;;;;;7.13;2.25;;;21.40;72.10;;;;;;4187475;28;20793;-65
2021/08/09 04:38:27;;;;;;;8.07;2.40;;;21.40;72.40;;;;;;4192913;28;20106;-65
2021/08/09 04:40:50;;;;;;;3.90;1.80;;;21.40;72.40;;;;;;4180820;28;20055;-64
2021/08/09 04:43:12;;;;;;;5.60;2.50;;;21.40;72.50;;;;;;4193269;28;20057;-64
2021/08/09 04:45:34;;;;;;;5.22;2.47;;;21.40;72.50;;;;;;4193820;28;20106;-64
2021/08/09 04:47:57;;;;;;;3.33;1.85;;;21.40;72.40;;;;;;4193855;28;20036;-64
2021/08/09 04:50:20;;;;;;;4.80;2.30;;;21.40;72.60;;;;;;4193989;28;20487;-64
2021/08/09 04:52:42;;;;;;;4.63;2.08;;;21.40;72.50;;;;;;4209494;28;20052;-64
2021/08/09 04:55:10;;;;;;;7.80;2.70;;;21.40;72.80;;;;;;4194285;28;20041;-63
2021/08/09 04:57:32;;;;;;;5.82;2.08;;;21.40;72.60;;;;;;4176894;28;20049;-62
2021/08/09 04:59:54;;;;;;;5.68;2.58;;;21.40;72.60;;;;;;4192493;28;20053;-62
2021/08/09 05:02:16;;;;;;;6.35;2.30;;;21.40;72.50;;;;;;4193030;28;20414;-62
2021/08/09 05:04:39;;;;;;;5.68;2.15;;;21.40;72.60;;;;;;4191344;28;20054;-63
2021/08/09 05:07:04;;;;;;;6.88;2.83;;;21.40;72.60;;;;;;4205982;28;20406;-62
2021/08/09 05:09:26;;;;;;;6.85;2.75;;;21.40;72.40;;;;;;4209553;28;20051;-62
2021/08/09 05:11:48;;;;;;;5.53;2.50;;;21.40;72.60;;;;;;4191220;28;20040;-63
2021/08/09 05:14:13;;;;;;;6.22;2.15;;;21.40;72.70;;;;;;4193516;28;20055;-63
2021/08/09 05:16:36;;;;;;;5.72;2.72;;;21.40;72.70;;;;;;4193730;28;20059;-63
2021/08/09 05:19:03;;;;;;;4.05;2.35;;;21.40;72.40;;;;;;4193294;28;20498;-64
2021/08/09 05:21:25;;;;;;;3.03;2.30;;;21.40;73.40;;;;;;4193549;28;20040;-63
2021/08/09 05:23:49;;;;;;;6.25;2.30;;;21.40;72.60;;;;;;4208840;28;20056;-65
2021/08/09 05:26:11;;;;;;;6.68;2.30;;;21.40;72.60;;;;;;4192214;28;20063;-66
2021/08/09 05:28:34;;;;;;;6.18;2.50;;;21.40;72.60;;;;;;4208892;28;20095;-65
2021/08/09 05:30:56;;;;;;;7.75;2.50;;;21.40;72.50;;;;;;4207580;28;20051;-66
2021/08/09 05:33:19;;;;;;;6.57;2.55;;;21.40;72.60;;;;;;4192052;28;20139;-65
2021/08/09 05:35:41;;;;;;;5.80;2.58;;;21.40;72.50;;;;;;4207396;28;20093;-66
2021/08/09 05:38:04;;;;;;;8.43;2.78;;;21.30;72.50;;;;;;4208499;28;20051;-65
2021/08/09 05:40:28;;;;;;;7.07;2.53;;;21.40;73.50;;;;;;4192002;28;20048;-65
2021/08/09 05:42:51;;;;;;;6.47;2.30;;;21.40;72.70;;;;;;4193131;28;20056;-63
2021/08/09 05:45:15;;;;;;;9.27;2.90;;;21.30;73.00;;;;;;4193396;28;20118;-68
2021/08/09 05:47:38;;;;;;;6.28;3.13;;;21.40;73.50;;;;;;4193045;28;20438;-67
2021/08/09 05:50:02;;;;;;;5.97;2.40;;;21.40;73.70;;;;;;4193403;28;20059;-67
2021/08/09 05:52:29;;;;;;;7.20;3.67;;;21.40;73.40;;;;;;4193245;28;20052;-68
2021/08/09 05:55:04;;;;;;;3.35;2.22;;;21.40;73.10;;;;;;4193042;28;20121;-67
2021/08/09 05:57:29;;;;;;;6.55;2.67;;;21.40;73.10;;;;;;4191834;28;20064;-69
2021/08/09 05:59:51;;;;;;;5.43;2.08;;;21.40;73.10;;;;;;4192211;28;20052;-67
2021/08/09 06:02:13;;;;;;;6.60;2.30;;;21.40;72.90;;;;;;4208396;28;20044;-68
2021/08/09 06:04:35;;;;;;;5.60;2.33;;;21.40;72.80;;;;;;4192924;28;20059;-68
2021/08/09 06:06:57;;;;;;;5.07;1.95;;;21.40;72.70;;;;;;4208113;28;20052;-69
2021/08/09 06:09:19;;;;;;;5.07;2.13;;;21.40;72.60;;;;;;4192808;28;20048;-68
2021/08/09 06:11:42;;;;;;;5.57;2.42;;;21.40;72.60;;;;;;4192406;28;20188;-70
2021/08/09 06:14:07;;;;;;;6.53;2.30;;;21.40;72.50;;;;;;4192432;28;20071;-68
2021/08/09 06:16:29;;;;;;;5.57;2.13;;;21.40;72.50;;;;;;4186674;28;20055;-67
2021/08/09 06:18:54;;;;;;;8.55;3.00;;;21.40;72.50;;;;;;4186868;28;20045;-68
2021/08/09 06:21:18;;;;;;;6.25;2.55;;;21.40;72.50;;;;;;4186695;28;20072;-63
2021/08/09 06:23:40;;;;;;;9.70;2.72;;;21.40;72.40;;;;;;4176509;28;20049;-66
2021/08/09 06:26:07;;;;;;;7.78;3.17;;;21.40;72.30;;;;;;4205490;28;20052;-67
2021/08/09 06:28:29;;;;;;;8.10;2.85;;;21.40;72.50;;;;;;4206903;28;20093;-66
2021/08/09 06:30:55;;;;;;;4.75;2.47;;;21.40;72.40;;;;;;4206655;28;20040;-69
2021/08/09 06:33:17;;;;;;;6.03;2.35;;;21.50;72.50;;;;;;4190111;28;20053;-68
2021/08/09 06:35:40;;;;;;;5.55;2.75;;;21.50;72.20;;;;;;4190268;28;20045;-64
2021/08/09 06:38:05;;;;;;;4.53;2.17;;;21.50;72.30;;;;;;4191388;28;20048;-68
2021/08/09 06:40:28;;;;;;;7.70;2.55;;;21.50;72.30;;;;;;4189050;28;20076;-67
2021/08/09 06:42:50;;;;;;;3.47;2.40;;;21.50;72.20;;;;;;4201394;28;20056;-67
2021/08/09 06:45:18;;;;;;;7.10;2.55;;;21.60;72.10;;;;;;4171693;28;20064;-67
2021/08/09 06:47:43;;;;;;;8.38;3.03;;;21.60;72.10;;;;;;4202423;28;20051;-67
2021/08/09 06:50:07;;;;;;;6.40;2.83;;;21.60;71.90;;;;;;4190577;28;20052;-66
2021/08/09 06:52:29;;;;;;;4.63;2.45;;;21.60;71.70;;;;;;4191079;28;20068;-66
2021/08/09 06:54:51;;;;;;;5.05;2.55;;;21.60;71.40;;;;;;4167377;28;20040;-66
2021/08/09 06:57:14;;;;;;;6.30;3.45;;;21.60;71.20;;;;;;4180528;28;20041;-66
2021/08/09 06:59:37;;;;;;;4.35;2.10;;;21.60;70.90;;;;;;4192143;28;20049;-67
2021/08/09 07:01:59;;;;;;;5.55;2.70;;;21.60;70.90;;;;;;4207160;28;20048;-68
2021/08/09 07:04:23;;;;;;;7.35;2.70;;;21.60;71.00;;;;;;4192294;28;20047;-66
2021/08/09 07:06:49;;;;;;;7.60;2.58;;;21.60;70.70;;;;;;4192432;28;20076;-68
2021/08/09 07:09:15;;;;;;;7.38;2.83;;;21.60;70.00;;;;;;4191766;28;20068;-67
2021/08/09 07:11:39;;;;;;;8.50;3.00;;;21.60;70.80;;;;;;4207341;28;20048;-67
2021/08/09 07:14:01;;;;;;;5.25;2.65;;;21.60;70.70;;;;;;4192312;28;20401;-68
2021/08/09 07:16:26;;;;;;;6.22;2.53;;;21.60;70.70;;;;;;4192172;28;20048;-70
2021/08/09 07:18:51;;;;;;;4.20;2.25;;;21.60;70.70;;;;;;4192214;28;20044;-67
2021/08/09 07:21:15;;;;;;;6.63;2.83;;;21.60;70.70;;;;;;4207063;28;20048;-71
2021/08/09 07:23:38;;;;;;;5.57;2.38;;;21.60;70.70;;;;;;4182321;28;20052;-71
2021/08/09 07:26:00;;;;;;;7.28;2.63;;;21.60;70.60;;;;;;4188662;28;20048;-73
2021/08/09 07:28:22;;;;;;;6.55;2.58;;;21.60;70.60;;;;;;4203179;28;20044;-73
2021/08/09 07:30:45;;;;;;;6.18;2.83;;;21.60;70.50;;;;;;4209894;28;20105;-69
2021/08/09 07:33:07;;;;;;;10.57;3.05;;;21.60;70.50;;;;;;4209732;28;20055;-68
2021/08/09 07:35:29;;;;;;;7.65;3.03;;;21.60;70.50;;;;;;4194562;28;20497;-67
2021/08/09 07:37:53;;;;;;;5.63;2.35;;;21.60;70.50;;;;;;4195325;28;20045;-68
2021/08/09 07:40:15;;;;;;;7.20;3.30;;;21.60;70.50;;;;;;4193023;28;20044;-66
2021/08/09 07:42:37;;;;;;;6.53;2.53;;;21.60;70.40;;;;;;4195500;28;20052;-67
2021/08/09 07:44:59;;;;;;;6.47;2.58;;;21.60;70.50;;;;;;4195471;28;20036;-69
2021/08/09 07:47:22;;;;;;;9.45;2.50;;;21.60;70.40;;;;;;4195122;28;20049;-68
2021/08/09 07:49:45;;;;;;;7.15;3.00;;;21.60;70.50;;;;;;4195037;28;20048;-67
2021/08/09 07:52:08;;;;;;;12.43;2.90;;;21.60;70.60;;;;;;4208391;28;20036;-67
2021/08/09 07:54:31;;;;;;;8.63;2.78;;;21.60;70.70;;;;;;4194976;28;20049;-67
2021/08/09 07:56:54;;;;;;;6.30;2.63;;;21.60;70.70;;;;;;4192274;28;20048;-68
2021/08/09 07:59:16;;;;;;;6.20;2.42;;;21.60;70.70;;;;;;4191266;28;20521;-67
2021/08/09 08:01:39;;;;;;;8.07;2.47;;;21.60;71.60;;;;;;4183169;28;20044;-67
2021/08/09 08:04:02;;;;;;;3.65;2.70;;;21.60;70.90;;;;;;4176067;28;20053;-69
2021/08/09 08:06:25;;;;;;;11.05;2.90;;;21.60;70.90;;;;;;4190715;28;20048;-68
2021/08/09 08:08:48;;;;;;;6.47;2.13;;;21.60;70.90;;;;;;4192587;28;20056;-68
2021/08/09 08:11:11;;;;;;;3.92;1.67;;;21.60;70.90;;;;;;4191990;28;20067;-68
2021/08/09 08:13:34;;;;;;;5.88;2.30;;;21.60;70.80;;;;;;4192754;28;20127;-67
2021/08/09 08:15:56;;;;;;;5.25;1.90;;;21.60;70.70;;;;;;4190873;28;20052;-67
2021/08/09 08:18:18;;;;;;;4.72;1.60;;;21.60;70.60;;;;;;4186921;28;20504;-66
2021/08/09 08:20:40;;;;;;;8.20;2.47;;;21.60;70.60;;;;;;4192077;28;20452;-68
2021/08/09 08:23:04;;;;;;;5.22;2.35;;;21.60;70.70;;;;;;4191488;28;20438;-66
2021/08/09 08:25:28;;;;;;;6.80;2.20;;;21.60;70.70;;;;;;4192015;28;20044;-67
2021/08/09 08:27:52;;;;;;;6.55;2.50;;;21.60;71.00;;;;;;4192171;28;20937;-68
2021/08/09 08:30:15;;;;;;;5.80;2.83;;;21.60;71.20;;;;;;4191791;28;20068;-68
2021/08/09 08:32:51;;;;;;;9.90;2.65;;;21.60;71.30;;;;;;4192476;28;20059;-68
2021/08/09 08:35:14;;;;;;;9.15;3.00;;;21.60;71.60;;;;;;4191985;28;20420;-68
2021/08/09 08:37:37;;;;;;;8.93;3.85;;;21.60;71.80;;;;;;4191651;28;20149;-67
2021/08/09 08:39:59;;;;;;;6.82;2.80;;;21.60;71.90;;;;;;4190982;28;20131;-67
2021/08/09 08:42:21;;;;;;;9.20;2.97;;;21.60;71.70;;;;;;4189579;28;20106;-67
2021/08/09 08:44:46;;;;;;;7.70;2.63;;;21.60;71.70;;;;;;4193115;28;20126;-66
2021/08/09 08:47:10;;;;;;;5.55;2.53;;;21.60;71.80;;;;;;4191222;28;20060;-67
2021/08/09 08:49:33;;;;;;;6.63;2.47;;;21.60;71.90;;;;;;4192560;28;20139;-67
2021/08/09 08:51:56;;;;;;;5.13;2.42;;;21.60;71.90;;;;;;4186015;28;20048;-68
2021/08/09 08:54:19;;;;;;;8.82;2.75;;;21.60;72.00;;;;;;4183034;28;20047;-68
2021/08/09 08:56:43;;;;;;;5.30;2.72;;;21.60;71.90;;;;;;4195247;28;20048;-70
2021/08/09 08:59:06;;;;;;;6.50;3.05;;;21.60;71.90;;;;;;4204009;28;20558;-67
2021/08/09 09:01:36;;;;;;;4.97;2.47;;;21.70;71.80;;;;;;4209543;28;20063;-67
2021/08/09 09:03:58;;;;;;;6.88;3.13;;;21.70;71.80;;;;;;4208138;28;20063;-67
2021/08/09 09:06:20;;;;;;;9.02;2.95;;;21.70;71.70;;;;;;4195300;28;20067;-65
2021/08/09 09:08:44;;;;;;;6.30;2.88;;;21.70;71.60;;;;;;4209637;28;20062;-66
2021/08/09 09:11:08;;;;;;;7.03;2.70;;;21.80;71.60;;;;;;4209542;28;20052;-67
2021/08/09 09:13:30;;;;;;;8.07;2.88;;;21.80;71.50;;;;;;4206934;28;20047;-65
2021/08/09 09:15:57;;;;;;;5.95;2.40;;;21.80;71.30;;;;;;4209333;28;20040;-66
2021/08/09 09:18:21;;;;;;;10.05;2.88;;;21.80;71.40;;;;;;4208324;28;20048;-66
2021/08/09 09:20:43;;;;;;;7.80;2.67;;;21.80;71.30;;;;;;4209192;28;20136;-66
2021/08/09 09:23:14;;;;;;;5.93;2.22;;;21.90;71.40;;;;;;4208961;28;20051;-66
2021/08/09 09:25:36;;;;;;;7.15;2.13;;;21.90;71.50;;;;;;4209501;28;20059;-66
2021/08/09 09:27:58;;;;;;;8.18;2.45;;;21.90;71.40;;;;;;4209265;28;20051;-66
2021/08/09 09:30:28;;;;;;;4.75;2.75;;;22.00;72.10;;;;;;4209031;28;20058;-66
2021/08/09 09:32:58;;;;;;;9.93;2.65;;;22.00;71.20;;;;;;4209060;28;20051;-65
2021/08/09 09:35:24;;;;;;;4.93;2.20;;;22.00;71.10;;;;;;4209146;28;20101;-66
2021/08/09 09:37:53;;;;;;;10.73;2.55;;;22.10;71.00;;;;;;4208264;28;20632;-64
2021/08/09 09:40:19;;;;;;;5.30;2.53;;;22.10;70.80;;;;;;4208689;28;20529;-66
2021/08/09 09:42:42;;;;;;;9.75;2.75;;;22.10;70.80;;;;;;4208895;28;20520;-66
2021/08/09 09:45:19;;;;;;;4.65;2.00;;;22.10;70.70;;;;;;4209070;28;20071;-66
2021/08/09 09:47:41;;;;;;;3.53;2.20;;;22.10;70.40;;;;;;4208504;28;20072;-67
2021/08/09 09:50:04;;;;;;;5.18;2.13;;;22.20;70.40;;;;;;4208763;28;20452;-67
2021/08/09 09:52:33;;;;;;;3.80;2.33;;;22.30;70.20;;;;;;4206987;28;20067;-67
2021/08/09 09:54:57;;;;;;;7.30;2.55;;;22.20;69.90;;;;;;4208610;28;20067;-67
2021/08/09 09:57:19;;;;;;;7.15;2.33;;;22.30;69.90;;;;;;4208682;28;20076;-66
2021/08/09 09:59:42;;;;;;;6.30;1.98;;;22.30;69.60;;;;;;4208235;28;20071;-66
2021/08/09 10:02:04;;;;;;;3.05;1.40;;;22.30;69.50;;;;;;4208607;28;20408;-66
2021/08/09 10:04:26;;;;;;;6.22;2.25;;;22.30;69.40;;;;;;4208882;28;20130;-67
2021/08/09 10:06:49;;;;;;;6.43;2.03;;;22.30;69.20;;;;;;4208004;28;20052;-63
2021/08/09 10:09:14;;;;;;;3.20;2.10;;;22.30;69.20;;;;;;4208460;28;20060;-68
2021/08/09 10:11:41;;;;;;;3.55;1.92;;;22.40;69.20;;;;;;4206789;28;20074;-67
2021/08/09 10:14:04;;;;;;;4.03;1.73;;;22.40;69.10;;;;;;4202535;28;20055;-67
2021/08/09 10:16:33;;;;;;;6.07;2.22;;;22.40;68.90;;;;;;4192057;28;20060;-66
2021/08/09 10:18:56;;;;;;;7.53;1.90;;;22.50;68.60;;;;;;4205560;28;20091;-65
2021/08/09 10:21:18;;;;;;;3.60;1.60;;;22.50;68.10;;;;;;4208417;28;20410;-66
2021/08/09 10:23:46;;;;;;;4.88;1.85;;;22.60;68.00;;;;;;4207443;28;20044;-66
2021/08/09 10:26:11;;;;;;;3.42;1.48;;;22.60;67.90;;;;;;4208619;28;20052;-67
2021/08/09 10:29:05;;;;;;;4.28;2.17;;;22.60;67.60;;;;;;4208134;28;20048;-66
2021/08/09 10:31:30;;;;;;;3.75;1.75;;;22.60;67.00;;;;;;4206836;28;20500;-65
2021/08/09 10:33:54;;;;;;;2.10;1.20;;;22.60;67.10;;;;;;4208351;28;20044;-66
2021/08/09 10:36:19;;;;;;;5.05;1.42;;;22.70;66.90;;;;;;4208159;28;20429;-67
2021/08/09 10:38:45;;;;;;;1.90;1.20;;;22.70;66.90;;;;;;4207667;28;20409;-66
2021/08/09 10:41:28;;;;;;;2.65;1.42;;;22.70;66.80;;;;;;4208360;28;20051;-66
2021/08/09 10:44:25;;;;;;;4.25;1.45;;;22.70;66.20;;;;;;4207532;28;20052;-65
2021/08/09 10:46:47;;;;;;;4.68;1.55;;;22.70;66.40;;;;;;4207257;28;20488;-65
2021/08/09 10:49:56;;;;;;;3.20;1.35;;;22.70;66.30;;;;;;4207345;28;20502;-64
2021/08/09 10:52:48;;;;;;;2.10;1.10;;;22.70;65.80;;;;;;4207613;28;20052;-66
2021/08/09 10:55:45;;;;;;;2.00;0.90;;;22.70;65.90;;;;;;4207419;28;20410;-64
2021/08/09 10:58:07;;;;;;;1.85;0.95;;;22.70;66.20;;;;;;4202213;28;20044;-67
2021/08/09 11:00:54;;;;;;;1.60;1.10;;;22.70;66.20;;;;;;4204969;28;20460;-69
2021/08/09 11:03:19;;;;;;;3.03;1.40;;;22.70;65.50;;;;;;4207141;28;20490;-70
2021/08/09 11:05:41;;;;;;;2.67;1.52;;;22.70;65.60;;;;;;4207437;28;20048;-68
2021/08/09 11:08:40;;;;;;;2.50;1.67;;;22.70;65.60;;;;;;4195785;28;20356;-70
2021/08/09 11:11:06;;;;;;;1.95;1.20;;;22.80;65.50;;;;;;4207378;28;20121;-69
2021/08/09 11:13:29;;;;;;;2.67;1.23;;;22.80;65.50;;;;;;4207876;28;20445;-70
2021/08/09 11:15:54;;;;;;;1.45;0.85;;;22.80;65.80;;;;;;4207792;28;20052;-70
2021/08/09 11:18:19;;;;;;;1.75;1.08;;;22.80;65.80;;;;;;4207910;28;20056;-70
2021/08/09 11:20:42;;;;;;;3.00;1.15;;;22.80;64.90;;;;;;4207301;28;20040;-71
2021/08/09 11:23:08;;;;;;;2.97;1.33;;;22.80;64.90;;;;;;4203843;28;20458;-71
2021/08/09 11:25:32;;;;;;;2.55;1.10;;;22.80;64.80;;;;;;4207848;28;20490;-71
2021/08/09 11:28:05;;;;;;;3.45;1.00;;;22.80;65.30;;;;;;4207254;28;20793;-67
2021/08/09 11:30:46;;;;;;;1.98;1.10;;;22.70;65.00;;;;;;4207166;28;20052;-67
2021/08/09 11:33:18;;;;;;;;;;;22.70;64.70;;;;;;4207488;28;20048;-67
2021/08/09 11:35:44;;;;;;;1.73;0.68;;;22.70;65.80;;;;;;4190835;28;19924;-66
2021/08/09 11:38:06;;;;;;;2.00;1.17;;;22.60;65.40;;;;;;4204433;28;20044;-66
2021/08/09 11:40:39;;;;;;;3.63;1.88;;;22.60;65.90;;;;;;4206587;28;20052;-65
2021/08/09 11:43:03;;;;;;;2.72;1.42;;;22.60;66.30;;;;;;4203741;28;20044;-65
2021/08/09 11:45:26;;;;;;;3.20;1.30;;;22.60;67.10;;;;;;4204709;28;20051;-64
2021/08/09 11:47:48;;;;;;;4.13;2.47;;;22.60;67.70;;;;;;4207268;28;20056;-64
2021/08/09 11:50:11;;;;;;;2.63;1.33;;;22.50;68.10;;;;;;4207041;28;20047;-65
2021/08/09 11:52:35;;;;;;;7.88;2.03;;;22.60;68.80;;;;;;4206351;28;20093;-65
2021/08/09 11:54:58;;;;;;;3.95;1.92;;;22.60;69.40;;;;;;4190617;28;20052;-65
2021/08/09 11:57:20;;;;;;;1.58;1.20;;;22.60;69.60;;;;;;4193362;28;20048;-66
2021/08/09 11:59:51;;;;;;;1.60;1.30;;;22.60;69.40;;;;;;4207397;28;20483;-66
2021/08/09 12:02:14;;;;;;;;;;;22.60;69.50;;;;;;4205764;28;20055;-65
2021/08/09 12:04:43;;;;;;;5.53;1.67;;;22.60;69.80;;;;;;4207446;28;20006;-65
2021/08/09 12:07:05;;;;;;;3.10;1.83;;;22.60;69.60;;;;;;4206440;28;20052;-65
2021/08/09 12:09:38;;;;;;;1.67;1.20;;;22.60;69.30;;;;;;4204973;28;20048;-66
2021/08/09 12:12:01;;;;;;;0.90;0.80;;;22.60;68.60;;;;;;4206012;28;20141;-65
2021/08/09 12:14:30;;;;;;;1.55;1.13;;;22.60;68.60;;;;;;4197820;28;20073;-64
2021/08/09 12:16:55;;;;;;;2.70;1.35;;;22.60;68.40;;;;;;4210428;28;20064;-66
2021/08/09 12:19:20;;;;;;;3.88;1.58;;;22.60;68.10;;;;;;4210411;28;20048;-68
2021/08/09 12:21:42;;;;;;;1.60;1.35;;;22.60;68.00;;;;;;4210348;28;20443;-66
2021/08/09 12:24:14;;;;;;;2.38;1.27;;;22.60;68.00;;;;;;4209563;28;20117;-67
2021/08/09 12:26:36;;;;;;;3.00;1.63;;;22.70;67.90;;;;;;4209617;28;20047;-66
2021/08/09 12:29:00;;;;;;;2.30;1.30;;;22.70;67.90;;;;;;4208898;28;20048;-70
2021/08/09 12:31:30;;;;;;;1.33;1.13;;;22.60;67.60;;;;;;4210296;28;20478;-67
2021/08/09 12:34:06;;;;;;;2.10;1.30;;;22.70;67.30;;;;;;4209353;28;20577;-66
2021/08/09 12:36:27;;;;;;;2.15;1.00;;;22.70;67.00;;;;;;4209436;28;20048;-67